createdAt,value
2023-03-27T00:15:42.580Z,49.4
2023-03-27T00:35:42.560Z,49.4
2023-03-27T00:55:42.551Z,49.4
2023-03-27T01:15:42.513Z,49.3
2023-03-27T01:35:42.584Z,49.2
2023-03-27T01:55:42.465Z,49.1
2023-03-27T02:15:42.472Z,49.0
2023-03-27T02:35:42.393Z,48.9
2023-03-27T02:55:42.395Z,48.8
2023-03-27T03:15:42.415Z,48.8
2023-03-27T03:35:42.359Z,48.7
2023-03-27T03:55:42.315Z,48.7
2023-03-27T04:15:42.309Z,48.5
2023-03-27T04:35:42.260Z,48.3
2023-03-27T04:55:42.250Z,48.0
2023-03-27T05:15:42.219Z,47.8
2023-03-27T05:35:42.197Z,47.6
2023-03-27T05:55:42.199Z,47.4
2023-03-27T06:15:42.137Z,47.3
2023-03-27T06:35:42.096Z,47.1
2023-03-27T06:55:42.103Z,47.0
2023-03-27T07:15:42.051Z,46.8
2023-03-27T07:35:42.006Z,46.7
2023-03-27T07:55:42.134Z,46.4
2023-03-27T08:15:42.007Z,46.2
2023-03-27T08:35:41.968Z,46.1
2023-03-27T08:55:41.970Z,46.1
2023-03-27T09:15:41.891Z,46.3
2023-03-27T09:35:41.883Z,46.2
2023-03-27T09:55:41.877Z,46.2
2023-03-27T10:15:41.878Z,46.2
2023-03-27T10:35:41.828Z,46.3
2023-03-27T11:15:41.766Z,46.4
2023-03-27T11:35:41.814Z,46.4
2023-03-27T11:55:41.710Z,46.5
2023-03-27T12:15:41.689Z,46.5
2023-03-27T12:35:41.674Z,46.4
2023-03-27T12:55:41.629Z,46.5
2023-03-27T13:15:41.605Z,46.5
2023-03-27T13:35:41.599Z,46.5
2023-03-27T13:55:41.539Z,46.5
2023-03-27T14:15:41.532Z,46.5
2023-03-27T14:35:41.490Z,46.6
2023-03-27T14:55:41.502Z,46.6
2023-03-27T15:15:41.445Z,46.7
2023-03-27T15:35:41.462Z,46.7
2023-03-27T15:55:41.382Z,46.7
2023-03-27T16:15:41.485Z,46.7
2023-03-27T16:35:41.361Z,46.7
2023-03-27T16:55:41.391Z,46.9
2023-03-27T17:15:41.350Z,47.2
2023-03-27T17:35:41.258Z,47.4
2023-03-27T17:55:41.228Z,47.1
2023-03-27T18:15:41.198Z,46.7
2023-03-27T18:35:41.330Z,46.7
2023-03-27T18:55:41.246Z,46.7
2023-03-27T19:15:41.146Z,46.4
2023-03-27T19:35:41.106Z,46.0
2023-03-27T19:55:41.098Z,45.5
2023-03-27T20:15:41.101Z,45.3
2023-03-27T20:35:41.067Z,45.0
2023-03-27T20:55:41.034Z,45.4
2023-03-27T21:15:41.018Z,45.8
2023-03-27T21:35:40.963Z,45.7
2023-03-27T21:55:41.045Z,45.7
2023-03-27T22:15:40.909Z,45.7
2023-03-27T22:35:40.880Z,45.7
2023-03-27T22:55:40.853Z,45.7
2023-03-27T23:15:40.849Z,45.7
2023-03-27T23:35:40.866Z,45.7
2023-03-27T23:55:40.824Z,45.6
